Terminal Aerodrome Forecast
Issued by NWS

Home | Current Version | Previous Version | Text Only | Print | Product List | Glossary On
Versions: 1 2 3 4 5 6 7 8 9 10 11 12 13 14
000
FTUS46 KMTR 280600 AAA
TAFSTS
TAF AMD
KSTS 280617Z 2806/2906 00000KT 1SM BR BCFG BKN002
     FM280700 00000KT 1/4SM FG VV002
     FM281700 20004KT 4SM BR OVC020 PROB30 2818/2821 3SM -RA OVC015
     FM282100 22005KT 3SM -RA BR OVC015=

USA.gov is the U.S. government's official web portal to all federal, state and local government web resources and services.